GR-0012 weather

Larisa
Larissa, Greece

Public forecast

Using degrees Celsius for public forecast. Weather courtesy of forecast.io.

METAR (pilot weather report)

Closest report is Larisa Airport, 5.8 nm (10.8 km) E. Retrieved 2018/12/16 06:50 UTC (26 minutes ago):

LGLR 160650Z 00000KT 2000 BR SCT010 OVC025 09/08 Q1012 YLO

TAF (pilot weather forecast)

Closest forecast is Thessaloniki Macedonia International Airport, 59.4 nm (110.0 km) NNE. Retrieved 2018/12/16 06:13 UTC (1 hour ago):

TAF LGTS 160500Z 1606/1706 VRB03KT 4000 BR SCT005 BKN020 PROB40 TEMPO 1606/1609 0500 FG BKN004 OVC020 PROB40 TEMPO 1606/1618 3000 RA SCT005 BKN020 PROB30 TEMPO 1606/1612 3000 SHRA SCT005 FEW018TCU BKN020 BECMG 1612/1614 35015G25KT 8000 SCT010 BKN025